createdAt,value
2019-01-06T00:01:49.077Z,100002.76
2019-01-06T00:04:57.291Z,100002.27
2019-01-06T00:07:55.497Z,100003.02
2019-01-06T00:10:45.451Z,99997.81
2019-01-06T00:13:59.520Z,100003.29
2019-01-06T00:16:47.449Z,99990.53
2019-01-06T00:19:42.958Z,99984.48
2019-01-06T00:22:37.654Z,99976.70
2019-01-06T00:25:31.431Z,99975.09
2019-01-06T00:28:21.838Z,99984.42
2019-01-06T00:31:11.120Z,99981.81
2019-01-06T00:34:09.385Z,99976.67
2019-01-06T00:36:57.524Z,99982.69
2019-01-06T00:39:54.269Z,99978.86
2019-01-06T00:42:38.131Z,99976.83
2019-01-06T00:45:31.381Z,99973.39
2019-01-06T00:48:20.551Z,99972.91
2019-01-06T00:51:22.002Z,99963.52
2019-01-06T00:54:17.408Z,99959.81
2019-01-06T00:57:16.407Z,99962.42
2019-01-06T01:00:04.720Z,99953.45
2019-01-06T01:02:52.738Z,99951.30
2019-01-06T01:05:41.088Z,99946.56
2019-01-06T01:08:29.828Z,99944.40
2019-01-06T01:11:18.053Z,99930.03
2019-01-06T01:14:10.602Z,99934.71
2019-01-06T01:17:04.277Z,99926.63
2019-01-06T01:19:48.209Z,99920.64
2019-01-06T01:22:44.056Z,99918.91
2019-01-06T01:25:42.834Z,99914.12
2019-01-06T01:28:41.422Z,99914.52
2019-01-06T01:31:30.588Z,99901.72
2019-01-06T01:34:21.084Z,99891.31
2019-01-06T01:37:13.423Z,99886.03
2019-01-06T01:40:02.430Z,99886.03
2019-01-06T01:43:07.467Z,99891.49
2019-01-06T01:45:55.797Z,99884.05
2019-01-06T01:49:04.398Z,99888.23
2019-01-06T01:51:55.000Z,99878.44
2019-01-06T01:54:43.346Z,99874.92
2019-01-06T01:57:28.622Z,99871.59
2019-01-06T02:00:24.044Z,99870.84
2019-01-06T02:03:16.760Z,99866.66
2019-01-06T02:06:07.846Z,99864.57
2019-01-06T02:09:00.764Z,99872.23
2019-01-06T02:11:51.579Z,99865.84
2019-01-06T02:14:40.433Z,99870.45
2019-01-06T02:17:29.904Z,99862.91
2019-01-06T02:20:19.590Z,99855.34
2019-01-06T02:23:14.071Z,99848.61
2019-01-06T02:26:04.494Z,99842.19
2019-01-06T02:28:53.020Z,99840.59
2019-01-06T02:31:43.721Z,99837.66
2019-01-06T02:34:41.917Z,99840.98
2019-01-06T02:37:25.541Z,99836.73
2019-01-06T02:40:14.035Z,99827.83
2019-01-06T02:43:03.666Z,99840.20
2019-01-06T02:45:53.141Z,99836.77
2019-01-06T02:48:41.601Z,99837.73
2019-01-06T02:51:47.213Z,99833.12
2019-01-06T02:54:48.302Z,99825.88
2019-01-06T02:57:50.158Z,99820.81
2019-01-06T03:00:38.303Z,99821.31
2019-01-06T03:03:34.232Z,99818.33
2019-01-06T03:06:40.307Z,99813.69
2019-01-06T03:09:30.993Z,99811.98
2019-01-06T03:12:26.615Z,99806.03
2019-01-06T03:15:19.269Z,99803.30
2019-01-06T03:18:12.023Z,99807.55
2019-01-06T03:21:02.825Z,99793.47
2019-01-06T03:24:05.102Z,99806.27
2019-01-06T03:26:52.524Z,99805.42
2019-01-06T03:29:51.524Z,99802.70
2019-01-06T03:32:40.497Z,99803.90
2019-01-06T03:35:48.496Z,99792.88
2019-01-06T03:38:36.441Z,99783.55
2019-01-06T03:41:33.501Z,99781.92
2019-01-06T03:44:37.700Z,99773.80
2019-01-06T03:47:27.403Z,99774.61
2019-01-06T03:50:17.166Z,99773.37
2019-01-06T03:53:05.519Z,99769.62
2019-01-06T03:55:53.876Z,99761.72
2019-01-06T03:58:56.270Z,99764.13
2019-01-06T04:01:53.492Z,99765.76
2019-01-06T04:04:51.978Z,99761.39
2019-01-06T04:08:02.162Z,99757.95
2019-01-06T04:11:04.219Z,99763.38
2019-01-06T04:13:50.714Z,99766.73
2019-01-06T04:16:53.094Z,99761.24
2019-01-06T04:19:54.457Z,99762.45
2019-01-06T04:22:42.495Z,99756.45
2019-01-06T04:25:31.959Z,99760.20
2019-01-06T04:28:32.190Z,99758.89
2019-01-06T04:31:24.121Z,99757.61
2019-01-06T04:34:13.607Z,99754.98
2019-01-06T04:37:15.577Z,99757.15
2019-01-06T04:40:04.017Z,99757.61
2019-01-06T04:42:54.624Z,99758.39
2019-01-06T04:45:43.171Z,99756.76
2019-01-06T04:48:32.335Z,99767.36
2019-01-06T04:51:20.581Z,99763.58
2019-01-06T04:54:25.416Z,99755.59
2019-01-06T04:57:26.571Z,99757.27
2019-01-06T05:00:14.965Z,99749.17
2019-01-06T05:03:04.486Z,99748.44
2019-01-06T05:05:57.049Z,99747.44
2019-01-06T05:08:45.501Z,99748.72
2019-01-06T05:11:36.198Z,99751.27
2019-01-06T05:14:35.097Z,99747.36
2019-01-06T05:17:23.332Z,99749.45
2019-01-06T05:20:29.193Z,99750.37
2019-01-06T05:23:18.149Z,99759.66
2019-01-06T05:26:07.047Z,99756.19
2019-01-06T05:29:15.025Z,99762.48
2019-01-06T05:32:03.682Z,99760.75
2019-01-06T05:35:06.984Z,99758.66
2019-01-06T05:38:12.015Z,99763.77
2019-01-06T05:41:10.714Z,99776.53
2019-01-06T05:44:19.847Z,99783.30
2019-01-06T05:47:20.278Z,99782.61
2019-01-06T05:50:08.634Z,99787.75
2019-01-06T05:53:13.362Z,99789.11
2019-01-06T05:56:05.903Z,99791.77
2019-01-06T05:58:58.353Z,99796.84
2019-01-06T06:01:54.067Z,99797.58
2019-01-06T06:04:42.118Z,99801.41
2019-01-06T06:07:30.769Z,99801.88
2019-01-06T06:10:20.662Z,99815.91
2019-01-06T06:13:08.694Z,99813.65
2019-01-06T06:16:06.972Z,99818.72
2019-01-06T06:18:57.477Z,99815.74
2019-01-06T06:21:52.887Z,99822.12
2019-01-06T06:24:47.168Z,99824.31
2019-01-06T06:27:41.147Z,99824.81
2019-01-06T06:30:29.608Z,99834.23
2019-01-06T06:33:34.343Z,99833.73
2019-01-06T06:36:24.225Z,99833.17
2019-01-06T06:39:18.617Z,99844.09
2019-01-06T06:42:14.489Z,99836.84
2019-01-06T06:44:58.892Z,99831.20
2019-01-06T06:47:47.746Z,99837.94
2019-01-06T06:50:36.001Z,99836.13
2019-01-06T06:53:26.706Z,99834.33
2019-01-06T06:56:25.089Z,99833.68
2019-01-06T06:59:23.773Z,99836.52
2019-01-06T07:03:01.611Z,99838.38
2019-01-06T07:05:44.494Z,99841.64
2019-01-06T07:08:32.639Z,99842.88
2019-01-06T07:11:35.430Z,99849.17
2019-01-06T07:14:23.634Z,99852.27
2019-01-06T07:17:40.913Z,99845.81
2019-01-06T07:20:27.818Z,99853.54
2019-01-06T07:23:16.263Z,99851.47
2019-01-06T07:26:14.553Z,99852.55
2019-01-06T07:29:14.779Z,99856.43
2019-01-06T07:32:03.275Z,99861.66
2019-01-06T07:34:51.778Z,99858.36
2019-01-06T07:37:40.105Z,99859.30
2019-01-06T07:40:28.277Z,99862.80
2019-01-06T07:43:29.662Z,99861.70
2019-01-06T07:46:18.886Z,99859.40
2019-01-06T07:49:23.201Z,99866.52
2019-01-06T07:52:19.047Z,99862.55
2019-01-06T07:55:17.936Z,99844.99
2019-01-06T07:58:10.498Z,99848.94
2019-01-06T08:00:59.247Z,99853.52
2019-01-06T08:04:06.821Z,99855.95
2019-01-06T08:07:11.276Z,99855.81
2019-01-06T08:10:00.010Z,99854.52
2019-01-06T08:12:48.057Z,99867.90
2019-01-06T08:15:36.297Z,99866.58
2019-01-06T08:18:24.243Z,99866.35
2019-01-06T08:21:13.625Z,99867.50
2019-01-06T08:24:08.715Z,99867.34
2019-01-06T08:26:56.990Z,99865.73
2019-01-06T08:30:01.504Z,99867.02
2019-01-06T08:32:56.601Z,99865.34
2019-01-06T08:35:45.185Z,99859.61
2019-01-06T08:38:23.761Z,99858.41
2019-01-06T08:41:12.967Z,99862.32
2019-01-06T08:44:01.282Z,99862.87
2019-01-06T08:47:00.007Z,99855.98
2019-01-06T08:49:48.126Z,99848.77
2019-01-06T08:52:36.164Z,99850.59
2019-01-06T08:55:24.814Z,99851.18
2019-01-06T08:58:25.763Z,99844.62
2019-01-06T09:01:13.105Z,99845.82
2019-01-06T09:04:17.727Z,99845.34
2019-01-06T09:07:19.777Z,99844.68
2019-01-06T09:10:13.348Z,99836.38
2019-01-06T09:13:18.288Z,99839.00
2019-01-06T09:16:23.934Z,99827.08
2019-01-06T09:19:28.267Z,99829.44
2019-01-06T09:22:20.519Z,99843.68
2019-01-06T09:25:22.181Z,99840.02
2019-01-06T09:28:27.118Z,99837.06
2019-01-06T09:31:22.175Z,99836.94
2019-01-06T09:34:26.535Z,99836.53
2019-01-06T09:37:21.844Z,99832.36
2019-01-06T09:40:27.180Z,99826.86
2019-01-06T09:43:22.514Z,99825.59
2019-01-06T09:46:05.650Z,99826.73
2019-01-06T09:48:52.595Z,99821.77
2019-01-06T09:51:41.188Z,99826.90
2019-01-06T09:54:30.489Z,99812.09
2019-01-06T09:57:19.689Z,99812.80
2019-01-06T10:00:19.770Z,99809.93
2019-01-06T10:03:13.097Z,99814.52
2019-01-06T10:06:17.454Z,99809.78
2019-01-06T10:09:06.722Z,99812.72
2019-01-06T10:11:58.731Z,99809.79
2019-01-06T10:15:06.436Z,99801.78
2019-01-06T10:17:54.511Z,99810.50
2019-01-06T10:20:43.359Z,99803.75
2019-01-06T10:23:32.545Z,99798.20
2019-01-06T10:26:21.706Z,99795.48
2019-01-06T10:29:14.450Z,99805.92
2019-01-06T10:32:06.959Z,99799.61
2019-01-06T10:34:54.945Z,99792.91
2019-01-06T10:37:43.308Z,99789.17
2019-01-06T10:40:32.648Z,99783.38
2019-01-06T10:43:30.697Z,99788.53
2019-01-06T10:46:27.340Z,99785.52
2019-01-06T10:49:15.619Z,99780.03
2019-01-06T10:52:05.261Z,99773.02
2019-01-06T10:54:57.398Z,99780.81
2019-01-06T10:57:45.743Z,99781.34
2019-01-06T11:00:50.067Z,99777.53
2019-01-06T11:03:58.763Z,99773.59
2019-01-06T11:06:48.412Z,99770.40
2019-01-06T11:09:36.637Z,99771.67
2019-01-06T11:12:32.247Z,99768.69
2019-01-06T11:15:19.971Z,99768.82
2019-01-06T11:18:21.143Z,99771.34
2019-01-06T11:21:12.856Z,99768.58
2019-01-06T11:24:02.017Z,99773.87
2019-01-06T11:27:00.614Z,99771.42
2019-01-06T11:30:01.887Z,99773.39
2019-01-06T11:32:46.830Z,99769.29
2019-01-06T11:35:25.917Z,99772.24
2019-01-06T11:38:16.055Z,99780.44
2019-01-06T11:41:07.871Z,99791.69
2019-01-06T11:44:03.897Z,99776.84
2019-01-06T11:46:51.443Z,99779.52
2019-01-06T11:49:40.610Z,99793.02
2019-01-06T11:52:28.433Z,99802.12
2019-01-06T11:55:24.260Z,99799.00
2019-01-06T11:58:19.881Z,99811.59
2019-01-06T12:01:08.254Z,99818.36
2019-01-06T12:03:56.287Z,99810.39
2019-01-06T12:06:46.052Z,99821.01
2019-01-06T12:09:52.457Z,99818.06
2019-01-06T12:12:40.776Z,99826.65
2019-01-06T12:15:41.297Z,99824.58
2019-01-06T12:18:29.575Z,99811.00
2019-01-06T12:21:18.925Z,99820.64
2019-01-06T12:24:08.414Z,99822.00
2019-01-06T12:26:56.446Z,99823.95
2019-01-06T12:29:58.632Z,99826.52
2019-01-06T12:32:53.937Z,99825.84
2019-01-06T12:35:43.591Z,99829.41
2019-01-06T12:38:31.685Z,99847.32
2019-01-06T12:41:21.037Z,99841.66
2019-01-06T12:44:09.162Z,99844.45
2019-01-06T12:47:01.327Z,99848.20
2019-01-06T12:49:56.609Z,99853.22
2019-01-06T12:52:47.209Z,99858.97
2019-01-06T12:55:39.258Z,99864.90
2019-01-06T12:58:31.374Z,99862.02
2019-01-06T13:01:29.461Z,99868.27
2019-01-06T13:04:15.736Z,99878.92
2019-01-06T13:07:04.273Z,99884.79
2019-01-06T13:09:53.895Z,99888.82
2019-01-06T13:12:42.028Z,99886.23
2019-01-06T13:15:32.338Z,99900.59
2019-01-06T13:18:24.893Z,99907.80
2019-01-06T13:21:14.357Z,99914.55
2019-01-06T13:24:13.241Z,99918.08
2019-01-06T13:27:15.215Z,99920.86
2019-01-06T13:29:55.380Z,99915.73
2019-01-06T13:32:48.112Z,99924.91
2019-01-06T13:35:40.350Z,99927.77
2019-01-06T13:38:30.039Z,99928.14
2019-01-06T13:41:26.877Z,99924.23
2019-01-06T13:44:15.433Z,99926.49
2019-01-06T13:47:19.658Z,99930.40
2019-01-06T13:50:21.121Z,99929.80
2019-01-06T13:53:20.221Z,99925.73
2019-01-06T13:56:15.841Z,99936.78
2019-01-06T13:59:06.648Z,99946.56
2019-01-06T14:01:58.986Z,99942.71
2019-01-06T14:04:52.035Z,99950.91
2019-01-06T14:07:56.563Z,99954.86
2019-01-06T14:10:52.185Z,99960.69
2019-01-06T14:13:40.424Z,99955.77
2019-01-06T14:16:29.836Z,99958.22
2019-01-06T14:19:22.037Z,99953.89
2019-01-06T14:22:27.044Z,99965.88
2019-01-06T14:25:15.216Z,99968.54
2019-01-06T14:28:03.167Z,99966.51
2019-01-06T14:30:55.735Z,99962.45
2019-01-06T14:33:42.536Z,99959.59
2019-01-06T14:36:30.408Z,99970.51
2019-01-06T14:39:20.411Z,99968.19
2019-01-06T14:42:13.877Z,99975.50
2019-01-06T14:45:01.811Z,99967.73
2019-01-06T14:47:57.182Z,99966.56
2019-01-06T14:50:46.551Z,99965.08
2019-01-06T14:53:54.621Z,99968.93
2019-01-06T14:56:42.465Z,99985.55
2019-01-06T14:59:35.007Z,100002.98
2019-01-06T15:02:22.756Z,100010.16
2019-01-06T15:05:12.116Z,100013.61
2019-01-06T15:08:20.329Z,100010.42
2019-01-06T15:11:16.555Z,100011.70
2019-01-06T15:14:18.495Z,100012.00
2019-01-06T15:17:17.112Z,100013.94
2019-01-06T15:20:05.385Z,100016.50
2019-01-06T15:22:53.445Z,100023.86
2019-01-06T15:25:54.618Z,100029.55
2019-01-06T15:28:42.404Z,100034.54
2019-01-06T15:31:37.700Z,99991.90
2019-01-06T15:34:34.025Z,100036.49
2019-01-06T15:37:22.373Z,100050.16
2019-01-06T15:40:18.196Z,100061.09
2019-01-06T15:43:07.364Z,100062.56
2019-01-06T15:45:56.963Z,100072.10
2019-01-06T15:48:52.375Z,100073.12
2019-01-06T15:51:54.025Z,100078.39
2019-01-06T15:54:44.630Z,100087.66
2019-01-06T15:57:33.679Z,100099.95
2019-01-06T16:00:21.529Z,100107.65
2019-01-06T16:03:10.741Z,100105.95
2019-01-06T16:05:59.341Z,100111.36
2019-01-06T16:08:45.962Z,100117.31
2019-01-06T16:11:40.656Z,100108.84
2019-01-06T16:14:34.426Z,100109.84
2019-01-06T16:17:36.806Z,100109.03
2019-01-06T16:20:25.461Z,100110.41
2019-01-06T16:23:13.707Z,100124.08
2019-01-06T16:26:02.564Z,100130.92
2019-01-06T16:28:55.321Z,100139.05
2019-01-06T16:32:02.918Z,100136.19
2019-01-06T16:34:58.636Z,100141.41
2019-01-06T16:38:05.437Z,100142.31
2019-01-06T16:40:54.702Z,100147.48
2019-01-06T16:43:47.950Z,100156.89
2019-01-06T16:46:49.916Z,100149.84
2019-01-06T16:49:57.728Z,100164.03
2019-01-06T16:52:45.967Z,100167.83
2019-01-06T16:55:44.770Z,100170.91
2019-01-06T16:58:33.623Z,100162.19
2019-01-06T17:01:35.195Z,100176.72
2019-01-06T17:04:37.971Z,100187.13
2019-01-06T17:07:30.313Z,100195.68
2019-01-06T17:10:20.824Z,100196.10
2019-01-06T17:13:13.158Z,100197.85
2019-01-06T17:16:02.736Z,100204.26
2019-01-06T17:18:55.485Z,100205.36
2019-01-06T17:21:44.855Z,100210.05
2019-01-06T17:24:46.658Z,100209.28
2019-01-06T17:27:43.781Z,100218.28
2019-01-06T17:30:51.479Z,100224.11
2019-01-06T17:33:49.858Z,100223.68
2019-01-06T17:36:38.211Z,100233.58
2019-01-06T17:39:23.083Z,100241.02
2019-01-06T17:42:08.862Z,100238.03
2019-01-06T17:45:00.131Z,100239.42
2019-01-06T17:47:55.488Z,100246.18
2019-01-06T17:50:44.043Z,100239.96
2019-01-06T17:53:39.776Z,100237.47
2019-01-06T17:56:42.447Z,100240.03
2019-01-06T17:59:32.572Z,100240.99
2019-01-06T18:02:37.280Z,100242.77
2019-01-06T18:05:26.537Z,100239.86
2019-01-06T18:08:27.286Z,100243.20
2019-01-06T18:11:28.833Z,100247.28
2019-01-06T18:14:33.670Z,100243.38
2019-01-06T18:17:38.632Z,100254.93
2019-01-06T18:20:28.188Z,100258.95
2019-01-06T18:23:29.963Z,100254.71
2019-01-06T18:26:18.506Z,100250.45
2019-01-06T18:29:14.121Z,100253.89
2019-01-06T18:32:12.403Z,100259.11
2019-01-06T18:35:01.873Z,100273.68
2019-01-06T18:37:54.915Z,100268.63
2019-01-06T18:40:49.011Z,100273.75
2019-01-06T18:43:30.841Z,100270.83
2019-01-06T18:46:23.905Z,100263.55
2019-01-06T18:49:19.421Z,100265.34
2019-01-06T18:52:08.963Z,100275.62
2019-01-06T18:54:56.817Z,100270.10
2019-01-06T18:57:49.544Z,100268.06
2019-01-06T19:00:57.215Z,100264.78
2019-01-06T19:03:55.430Z,100277.20
2019-01-06T19:06:43.694Z,100269.08
2019-01-06T19:09:43.801Z,100281.37
2019-01-06T19:12:39.525Z,100281.95
2019-01-06T19:15:36.682Z,100295.17
2019-01-06T19:18:33.524Z,100287.59
2019-01-06T19:21:25.463Z,100295.23
2019-01-06T19:24:14.030Z,100303.91
2019-01-06T19:27:02.161Z,100297.09
2019-01-06T19:29:50.612Z,100301.04
2019-01-06T19:32:40.085Z,100311.78
2019-01-06T19:35:41.849Z,100301.55
2019-01-06T19:38:36.957Z,100305.45
2019-01-06T19:41:26.428Z,100313.57
2019-01-06T19:44:32.308Z,100312.69
2019-01-06T19:47:28.648Z,100317.38
2019-01-06T19:50:32.126Z,100323.85
2019-01-06T19:53:16.591Z,100320.44
2019-01-06T19:56:15.386Z,100320.98
2019-01-06T19:59:02.607Z,100321.80
2019-01-06T20:02:07.329Z,100332.98
2019-01-06T20:05:10.483Z,100334.70
2019-01-06T20:08:14.951Z,100329.69
2019-01-06T20:11:10.250Z,100335.22
2019-01-06T20:14:01.072Z,100327.58
2019-01-06T20:16:53.212Z,100333.17
2019-01-06T20:19:41.756Z,100338.73
2019-01-06T20:22:40.491Z,100342.98
2019-01-06T20:25:30.196Z,100337.88
2019-01-06T20:28:35.680Z,100351.66
2019-01-06T20:31:23.925Z,100352.94
2019-01-06T20:34:19.140Z,100346.14
2019-01-06T20:37:26.941Z,100344.56
2019-01-06T20:40:16.112Z,100345.74
2019-01-06T20:43:05.094Z,100347.19
2019-01-06T20:45:56.696Z,100351.02
2019-01-06T20:48:45.246Z,100351.91
2019-01-06T20:51:39.743Z,100360.48
2019-01-06T20:54:27.685Z,100358.73
2019-01-06T20:57:16.231Z,100359.23
2019-01-06T21:00:08.978Z,100364.83
2019-01-06T21:02:58.554Z,100372.44
2019-01-06T21:05:51.730Z,100372.02
2019-01-06T21:08:39.707Z,100365.52
2019-01-06T21:11:28.313Z,100375.35
2019-01-06T21:14:30.703Z,100381.25
2019-01-06T21:17:18.838Z,100387.32
2019-01-06T21:20:12.196Z,100388.55
2019-01-06T21:23:00.150Z,100388.11
2019-01-06T21:26:04.873Z,100401.03
2019-01-06T21:28:52.809Z,100397.55
2019-01-06T21:31:40.949Z,100406.02
2019-01-06T21:34:29.712Z,100402.70
2019-01-06T21:37:17.558Z,100403.53
2019-01-06T21:40:19.209Z,100403.88
2019-01-06T21:43:03.854Z,100400.59
2019-01-06T21:46:09.727Z,100394.70
2019-01-06T21:49:08.931Z,100403.58
2019-01-06T21:52:07.829Z,100409.58
2019-01-06T21:55:15.637Z,100413.33
2019-01-06T21:58:17.493Z,100419.70
2019-01-06T22:01:12.624Z,100427.36
2019-01-06T22:04:00.749Z,100427.31
2019-01-06T22:06:50.223Z,100433.75
2019-01-06T22:09:47.161Z,100426.06
2019-01-06T22:12:35.748Z,100431.89
2019-01-06T22:15:23.968Z,100436.17
2019-01-06T22:18:15.084Z,100442.20
2019-01-06T22:21:03.123Z,100430.27
2019-01-06T22:24:01.616Z,100428.48
2019-01-06T22:26:44.019Z,100420.56
2019-01-06T22:29:48.438Z,100412.55
2019-01-06T22:32:37.927Z,100409.17
2019-01-06T22:35:30.801Z,100404.56
2019-01-06T22:38:29.571Z,100389.28
2019-01-06T22:41:31.234Z,100391.91
2019-01-06T22:44:20.713Z,100396.69
2019-01-06T22:47:20.118Z,100405.23
2019-01-06T22:50:12.863Z,100404.83
2019-01-06T22:53:12.365Z,100415.06
2019-01-06T22:56:11.577Z,100418.89
2019-01-06T22:58:59.619Z,100421.09
2019-01-06T23:01:47.554Z,100418.08
2019-01-06T23:04:29.859Z,100418.11
2019-01-06T23:07:28.670Z,100425.36
2019-01-06T23:10:28.995Z,100436.02
2019-01-06T23:13:11.452Z,100423.23
2019-01-06T23:15:59.644Z,100432.99
2019-01-06T23:18:48.190Z,100433.39
2019-01-06T23:21:55.684Z,100429.59
2019-01-06T23:24:46.194Z,100418.11
2019-01-06T23:27:47.849Z,100436.77
2019-01-06T23:30:54.012Z,100436.87
2019-01-06T23:33:58.634Z,100451.20
2019-01-06T23:36:41.249Z,100450.44
2019-01-06T23:39:30.864Z,100459.27
2019-01-06T23:42:18.969Z,100458.38
2019-01-06T23:45:09.152Z,100458.41
2019-01-06T23:48:03.559Z,100457.98
2019-01-06T23:50:56.610Z,100461.38
2019-01-06T23:53:46.156Z,100440.32
2019-01-06T23:56:41.292Z,100449.64
2019-01-06T23:59:36.806Z,100458.63
